Time;durP1;ratioP1;P1;durP2;ratioP2;P2;SDS_P1;SDS_P2;PMS_P1;PMS_P2;Temp;Humidity;BMP_temperature;BMP_pressure;BME280_temperature;BME280_humidity;BME280_pressure;Samples;Min_cycle;Max_cycle;Signal;HPM_P1;HPM_P2
2022/04/19 00:01:58;;;;;;;3.70;3.30;;;11.70;23.10;;;;;;10381692;28;20230;-74
2022/04/19 00:07:02;;;;;;;3.63;3.23;;;11.50;22.90;;;;;;10379729;28;20233;-74
2022/04/19 00:12:07;;;;;;;3.90;3.47;;;11.30;22.90;;;;;;10380073;28;20238;-74
2022/04/19 00:17:11;;;;;;;8.93;7.33;;;11.20;23.50;;;;;;10376586;28;20264;-74
2022/04/19 00:22:14;;;;;;;9.20;7.03;;;11.10;23.20;;;;;;10358383;28;20233;-74
2022/04/19 00:27:18;;;;;;;4.47;4.03;;;11.00;23.20;;;;;;10377061;28;20320;-74
2022/04/19 00:32:23;;;;;;;3.43;3.13;;;10.80;23.40;;;;;;10381341;28;20234;-74
2022/04/19 00:37:27;;;;;;;3.40;3.10;;;10.50;23.30;;;;;;10377115;28;20273;-74
2022/04/19 00:42:32;;;;;;;2.97;2.77;;;10.40;24.10;;;;;;10376922;28;20234;-73
2022/04/19 00:47:39;;;;;;;3.13;2.83;;;10.20;23.90;;;;;;10377911;28;20594;-74
2022/04/19 00:52:43;;;;;;;4.13;3.13;;;10.10;23.80;;;;;;10373400;28;20313;-73
2022/04/19 00:57:48;;;;;;;6.43;3.23;;;10.20;24.00;;;;;;10373018;28;20236;-74
2022/04/19 01:02:51;;;;;;;3.60;3.30;;;10.20;24.30;;;;;;10377885;28;20230;-73
2022/04/19 01:07:56;;;;;;;3.30;3.00;;;10.20;23.90;;;;;;10379382;28;20365;-74
2022/04/19 01:13:19;;;;;;;6.00;3.23;;;10.10;23.80;;;;;;10375135;28;20234;-73
2022/04/19 01:18:23;;;;;;;3.47;3.17;;;10.00;24.30;;;;;;10373395;28;20232;-74
2022/04/19 01:23:29;;;;;;;3.10;2.70;;;10.00;24.20;;;;;;10378843;28;20230;-74
2022/04/19 01:28:32;;;;;;;2.93;2.53;;;9.90;25.20;;;;;;10373944;28;20234;-74
2022/04/19 01:33:35;;;;;;;3.00;2.70;;;9.90;25.00;;;;;;10377664;28;20221;-74
2022/04/19 01:38:40;;;;;;;3.37;3.07;;;9.90;25.00;;;;;;10375696;28;20851;-74
2022/04/19 01:43:44;;;;;;;3.33;2.60;;;9.90;25.40;;;;;;10375634;28;20237;-74
2022/04/19 01:48:47;;;;;;;2.80;2.60;;;9.90;25.10;;;;;;10374952;28;20599;-73
2022/04/19 01:53:52;;;;;;;4.60;3.10;;;10.00;24.40;;;;;;10373048;28;20586;-74
2022/04/19 01:58:55;;;;;;;3.30;3.00;;;10.00;24.80;;;;;;10377289;28;20222;-74
2022/04/19 02:03:58;;;;;;;3.00;2.53;;;10.00;24.50;;;;;;10383543;28;20229;-74
2022/04/19 02:09:03;;;;;;;3.33;2.97;;;10.00;24.40;;;;;;10385856;28;20811;-74
2022/04/19 02:14:06;;;;;;;3.87;3.30;;;10.00;24.80;;;;;;10380559;28;20237;-74
2022/04/19 02:19:09;;;;;;;3.57;3.23;;;9.90;25.30;;;;;;10386793;28;20230;-74
2022/04/19 02:24:14;;;;;;;3.30;3.00;;;9.80;25.30;;;;;;10384236;28;20238;-74
2022/04/19 02:29:18;;;;;;;3.40;3.10;;;9.70;25.60;;;;;;10383571;28;20232;-74
2022/04/19 02:34:21;;;;;;;4.67;4.27;;;9.70;25.50;;;;;;10381815;28;20280;-74
2022/04/19 02:39:26;;;;;;;3.77;3.43;;;9.60;25.70;;;;;;10381373;28;20233;-74
2022/04/19 02:44:29;;;;;;;3.67;3.37;;;9.50;25.90;;;;;;10381816;28;20245;-74
2022/04/19 02:49:32;;;;;;;4.20;3.80;;;9.60;25.80;;;;;;10383104;28;20581;-74
2022/04/19 02:54:37;;;;;;;5.00;4.50;;;9.60;26.00;;;;;;10382276;28;20230;-74
2022/04/19 02:59:45;;;;;;;4.33;3.93;;;9.60;26.30;;;;;;10384181;28;20240;-74
2022/04/19 03:04:48;;;;;;;4.77;4.27;;;9.70;26.00;;;;;;10382850;28;20222;-74
2022/04/19 03:09:53;;;;;;;3.80;3.50;;;9.70;26.10;;;;;;10383948;28;20229;-74
2022/04/19 03:14:56;;;;;;;4.10;3.70;;;9.70;26.80;;;;;;10380498;28;20233;-74
2022/04/19 03:19:59;;;;;;;4.60;3.60;;;9.70;26.00;;;;;;10380770;28;20233;-74
2022/04/19 03:30:25;;;;;;;3.27;2.97;;;9.70;26.20;;;;;;10379270;28;20233;-74
2022/04/19 03:35:28;;;;;;;3.30;3.00;;;9.70;26.10;;;;;;10380838;28;20612;-74
2022/04/19 03:40:33;;;;;;;4.57;2.87;;;9.70;26.60;;;;;;10381384;28;20236;-75
2022/04/19 03:45:36;;;;;;;3.97;3.23;;;9.70;26.50;;;;;;10385498;28;20244;-74
2022/04/19 03:50:40;;;;;;;2.83;2.63;;;9.70;26.20;;;;;;10379720;28;20232;-74
2022/04/19 03:55:44;;;;;;;3.10;2.80;;;9.60;26.20;;;;;;10378653;28;20238;-74
2022/04/19 04:00:48;;;;;;;4.83;2.50;;;9.60;26.40;;;;;;10383199;28;20233;-74
2022/04/19 04:05:51;;;;;;;2.53;2.30;;;9.60;26.10;;;;;;10379524;28;20222;-74
2022/04/19 04:10:55;;;;;;;2.67;2.47;;;9.70;26.20;;;;;;10381461;28;20225;-73
2022/04/19 04:15:58;;;;;;;2.60;2.40;;;9.60;26.30;;;;;;10374267;28;20595;-73
2022/04/19 04:21:02;;;;;;;2.70;2.50;;;9.60;26.20;;;;;;10378418;28;20229;-74
2022/04/19 04:26:06;;;;;;;2.50;2.30;;;9.60;26.10;;;;;;10375840;28;20237;-74
2022/04/19 04:31:09;;;;;;;2.60;2.40;;;9.60;26.30;;;;;;10377785;28;20226;-74
2022/04/19 04:36:13;;;;;;;3.30;2.73;;;9.50;26.10;;;;;;10372786;28;20240;-74
2022/04/19 04:41:18;;;;;;;3.13;2.70;;;9.50;26.00;;;;;;10376787;28;20241;-74
2022/04/19 04:51:42;;;;;;;4.00;3.27;;;9.50;26.10;;;;;;10380576;28;20292;-74
2022/04/19 04:56:46;;;;;;;5.03;3.40;;;9.40;26.10;;;;;;10375206;28;20240;-74
2022/04/19 05:01:50;;;;;;;2.93;2.73;;;9.40;26.50;;;;;;10378995;28;21023;-74
2022/04/19 05:06:53;;;;;;;4.67;3.33;;;9.40;26.20;;;;;;10379485;28;20816;-74
2022/04/19 05:11:58;;;;;;;3.50;3.20;;;9.40;26.30;;;;;;10379492;28;20608;-76
2022/04/19 05:17:01;;;;;;;5.03;4.03;;;9.40;26.60;;;;;;10374419;28;20626;-75
2022/04/19 05:22:05;;;;;;;4.00;3.10;;;9.40;26.50;;;;;;10379200;28;20234;-75
2022/04/19 05:27:09;;;;;;;4.00;3.60;;;9.30;26.50;;;;;;10376460;28;20714;-76
2022/04/19 05:32:12;;;;;;;3.13;2.93;;;9.30;26.90;;;;;;10378189;28;20234;-76
2022/04/19 05:37:16;;;;;;;3.83;3.50;;;9.30;26.70;;;;;;10376564;28;20244;-73
2022/04/19 05:42:20;;;;;;;3.03;2.73;;;9.20;26.90;;;;;;10374257;28;20221;-73
2022/04/19 05:47:23;;;;;;;4.87;2.80;;;9.20;27.40;;;;;;10378555;28;20776;-73
2022/04/19 05:52:27;;;;;;;4.30;3.00;;;9.20;27.20;;;;;;10371084;28;20226;-75
2022/04/19 05:57:31;;;;;;;3.30;3.00;;;9.20;27.20;;;;;;10375225;28;20253;-76
2022/04/19 06:07:55;;;;;;;3.30;3.00;;;9.30;27.40;;;;;;10374750;28;20228;-73
2022/04/19 06:13:00;;;;;;;3.53;3.23;;;9.30;27.40;;;;;;10377977;28;20233;-75
2022/04/19 06:18:04;;;;;;;3.53;3.23;;;9.30;27.80;;;;;;10377110;28;20241;-73
2022/04/19 06:23:07;;;;;;;4.50;4.07;;;9.40;27.50;;;;;;10377812;28;20240;-73
2022/04/19 06:28:11;;;;;;;4.00;3.60;;;9.40;27.60;;;;;;10375442;28;20238;-76
2022/04/19 06:33:14;;;;;;;8.33;4.30;;;9.40;27.90;;;;;;10373804;28;20237;-74
2022/04/19 06:38:18;;;;;;;4.30;3.90;;;9.50;27.80;;;;;;10373423;28;20226;-75
2022/04/19 06:43:22;;;;;;;3.60;3.27;;;9.60;28.00;;;;;;10376663;28;20226;-76
2022/04/19 06:48:25;;;;;;;4.10;3.80;;;9.70;28.00;;;;;;10378710;28;20226;-74
2022/04/19 06:53:30;;;;;;;4.07;3.70;;;9.80;28.00;;;;;;10382619;28;20230;-75
2022/04/19 06:58:34;;;;;;;4.53;4.13;;;9.90;28.10;;;;;;10378020;28;20245;-75
2022/04/19 07:03:38;;;;;;;3.73;3.43;;;10.10;27.80;;;;;;10381310;28;20236;-75
2022/04/19 07:08:41;;;;;;;5.37;3.80;;;10.20;27.40;;;;;;10383888;28;20226;-75
2022/04/19 07:13:45;;;;;;;5.43;4.23;;;10.40;27.40;;;;;;10381970;28;20233;-75
2022/04/19 07:18:48;;;;;;;4.07;3.73;;;10.50;27.60;;;;;;10382196;28;20229;-75
2022/04/19 07:29:15;;;;;;;4.07;3.67;;;10.90;27.50;;;;;;10381285;28;20229;-75
2022/04/19 07:34:18;;;;;;;6.57;5.87;;;11.10;27.70;;;;;;10386573;28;20222;-75
2022/04/19 07:39:21;;;;;;;4.87;4.40;;;11.20;27.30;;;;;;10381963;28;21524;-75
2022/04/19 07:44:28;;;;;;;4.47;4.07;;;11.30;27.20;;;;;;10374931;28;20613;-75
2022/04/19 07:49:31;;;;;;;4.20;3.80;;;11.50;27.40;;;;;;10375519;28;20483;-75
2022/04/19 07:54:35;;;;;;;4.83;3.83;;;11.60;27.10;;;;;;10379803;28;20594;-75
2022/04/19 07:59:40;;;;;;;3.97;3.67;;;11.70;27.00;;;;;;10373853;28;20233;-75
2022/04/19 08:04:43;;;;;;;7.13;4.17;;;11.80;27.30;;;;;;10376466;28;20230;-75
2022/04/19 08:09:46;;;;;;;4.20;3.80;;;12.00;27.10;;;;;;10379881;28;20225;-75
2022/04/19 08:14:50;;;;;;;5.03;3.83;;;12.10;27.10;;;;;;10379920;28;20236;-74
2022/04/19 08:19:56;;;;;;;4.63;4.00;;;12.20;27.20;;;;;;10382372;28;20237;-75
2022/04/19 08:24:59;;;;;;;3.97;3.67;;;12.40;27.20;;;;;;10375116;28;20758;-75
2022/04/19 08:30:08;;;;;;;4.07;3.77;;;12.50;27.10;;;;;;10378550;28;20236;-76
2022/04/19 08:35:11;;;;;;;4.20;3.50;;;12.60;27.20;;;;;;10377789;28;20233;-75
2022/04/19 08:40:16;;;;;;;3.80;3.40;;;12.80;27.00;;;;;;10376347;28;20233;-75
2022/04/19 08:45:21;;;;;;;3.37;3.07;;;12.90;27.00;;;;;;10380941;28;20254;-74
2022/04/19 08:50:24;;;;;;;3.73;2.90;;;13.00;27.00;;;;;;10377859;28;20230;-74
2022/04/19 09:01:00;;;;;;;3.20;2.90;;;13.40;26.80;;;;;;10324676;28;20234;-74
2022/04/19 09:06:04;;;;;;;2.80;2.60;;;13.60;26.50;;;;;;10380436;28;20237;-73
2022/04/19 09:11:11;;;;;;;2.70;2.50;;;13.70;26.60;;;;;;10374918;28;20287;-73
2022/04/19 09:16:15;;;;;;;3.23;2.27;;;13.90;26.50;;;;;;10373759;28;20272;-74
2022/04/19 09:21:18;;;;;;;3.53;2.10;;;14.20;26.90;;;;;;10375580;28;20717;-75
2022/04/19 09:26:21;;;;;;;3.20;2.00;;;14.40;26.10;;;;;;10378137;28;20605;-75
2022/04/19 09:31:31;;;;;;;2.13;2.03;;;14.70;26.00;;;;;;10378312;28;20230;-75
2022/04/19 09:36:35;;;;;;;2.23;2.03;;;14.90;25.70;;;;;;10373474;28;20717;-75
2022/04/19 09:41:40;;;;;;;2.40;2.20;;;15.10;25.80;;;;;;10371284;28;20237;-73
2022/04/19 09:47:02;;;;;;;2.00;1.90;;;15.30;25.70;;;;;;10374333;28;20226;-73
2022/04/19 09:52:06;;;;;;;2.20;2.00;;;15.60;25.00;;;;;;10374578;28;20237;-73
2022/04/19 09:57:09;;;;;;;2.73;2.17;;;15.80;25.40;;;;;;10376030;28;20233;-75
2022/04/19 10:12:58;;;;;;;2.60;2.40;;;16.20;24.50;;;;;;10378560;28;20237;-74
2022/04/19 10:18:04;;;;;;;2.53;2.37;;;16.30;24.70;;;;;;10377415;28;20239;-73
2022/04/19 10:23:09;;;;;;;3.23;2.93;;;16.40;23.90;;;;;;10384452;28;20706;-73
2022/04/19 10:28:13;;;;;;;3.20;2.10;;;16.50;23.70;;;;;;10381380;28;21093;-75
2022/04/19 10:33:49;;;;;;;2.60;2.20;;;16.60;23.80;;;;;;10383349;28;20683;-73
2022/04/19 10:39:24;;;;;;;2.67;1.90;;;16.70;23.10;;;;;;10382865;28;20600;-73
2022/04/19 10:44:29;;;;;;;2.20;2.00;;;16.90;22.90;;;;;;10297250;28;20213;-73
2022/04/19 10:49:47;;;;;;;1.90;1.80;;;17.00;23.50;;;;;;10383358;28;20425;-73
2022/04/19 10:55:04;;;;;;;2.10;2.00;;;17.10;23.40;;;;;;10376950;28;20278;-73
2022/04/19 11:00:21;;;;;;;2.27;2.07;;;17.30;22.60;;;;;;10379458;28;20244;-73
2022/04/19 11:05:46;;;;;;;2.63;2.10;;;17.50;22.60;;;;;;10381006;28;20230;-73
2022/04/19 11:10:50;;;;;;;2.50;1.90;;;17.60;22.40;;;;;;10376982;28;20633;-73
2022/04/19 11:16:00;;;;;;;2.00;1.87;;;17.70;23.30;;;;;;10379757;28;20726;-73
2022/04/19 11:21:06;;;;;;;1.80;1.70;;;17.80;21.90;;;;;;10376195;28;20254;-73
2022/04/19 11:26:41;;;;;;;2.07;1.90;;;17.90;22.30;;;;;;10379016;28;20219;-73
2022/04/19 11:32:07;;;;;;;1.73;1.63;;;17.90;21.80;;;;;;10381576;28;20222;-73
2022/04/19 11:37:11;;;;;;;1.70;1.60;;;17.90;21.50;;;;;;10381075;28;20336;-75
2022/04/19 11:47:44;;;;;;;2.53;2.07;;;17.90;21.40;;;;;;10377373;28;20232;-75
2022/04/19 11:52:48;;;;;;;2.17;1.90;;;17.90;20.80;;;;;;10381701;28;20221;-75
2022/04/19 11:58:03;;;;;;;2.10;2.00;;;17.80;21.50;;;;;;10376986;28;20233;-74
2022/04/19 12:03:24;;;;;;;2.63;2.43;;;17.80;20.50;;;;;;10377765;28;20225;-75
2022/04/19 12:08:37;;;;;;;2.70;1.97;;;17.70;19.90;;;;;;10377526;28;20233;-75
2022/04/19 12:13:42;;;;;;;2.47;2.27;;;17.60;21.00;;;;;;10374453;28;20272;-75
2022/04/19 12:18:54;;;;;;;3.70;2.30;;;17.60;21.20;;;;;;10379665;28;20237;-75
2022/04/19 12:23:58;;;;;;;2.10;1.90;;;17.70;20.50;;;;;;10375394;28;20710;-75
2022/04/19 12:29:11;;;;;;;4.30;2.20;;;17.70;21.30;;;;;;10374929;28;20232;-75
2022/04/19 12:34:15;;;;;;;2.90;1.90;;;17.70;20.40;;;;;;10373163;28;20241;-75
2022/04/19 12:39:23;;;;;;;1.90;1.80;;;17.80;21.30;;;;;;10377815;28;20226;-74
2022/04/19 12:44:26;;;;;;;2.03;1.90;;;17.80;20.80;;;;;;10366890;28;21701;-72
2022/04/19 12:49:30;;;;;;;2.13;1.97;;;17.90;21.40;;;;;;10376799;28;20226;-73
2022/04/19 12:54:37;;;;;;;3.57;2.43;;;17.90;20.60;;;;;;10372005;28;20935;-72
2022/04/19 12:59:43;;;;;;;2.07;1.97;;;18.00;20.20;;;;;;10374540;28;20665;-72
2022/04/19 13:04:46;;;;;;;6.60;2.57;;;18.00;20.90;;;;;;10374597;28;20287;-72
2022/04/19 13:15:12;;;;;;;2.20;1.87;;;18.30;20.20;;;;;;10390166;28;20234;-77
2022/04/19 13:20:15;;;;;;;1.97;1.83;;;18.40;20.50;;;;;;10374471;28;20225;-74
2022/04/19 13:25:20;;;;;;;1.67;1.47;;;18.40;20.30;;;;;;10380796;28;20254;-74
2022/04/19 13:30:28;;;;;;;1.70;1.60;;;18.50;19.60;;;;;;10377392;28;20234;-75
2022/04/19 13:35:31;;;;;;;3.27;1.30;;;18.50;19.90;;;;;;10388201;28;20773;-78
2022/04/19 13:40:36;;;;;;;1.40;1.30;;;18.40;19.30;;;;;;10387532;28;20232;-74
2022/04/19 13:45:39;;;;;;;1.60;1.50;;;18.30;18.90;;;;;;10376122;28;20731;-74
2022/04/19 13:50:42;;;;;;;2.20;1.60;;;18.30;19.20;;;;;;10376752;28;20309;-74
2022/04/19 13:55:47;;;;;;;1.93;1.83;;;18.20;19.10;;;;;;10376786;28;20232;-74
2022/04/19 14:00:50;;;;;;;1.60;1.50;;;18.20;19.20;;;;;;10383449;28;20228;-74
2022/04/19 14:05:53;;;;;;;1.50;1.40;;;18.20;19.60;;;;;;10385414;28;20967;-72
2022/04/19 14:10:58;;;;;;;1.43;1.33;;;18.20;19.90;;;;;;10389252;28;20906;-74
2022/04/19 14:16:02;;;;;;;1.73;1.63;;;18.30;19.60;;;;;;10389102;28;20238;-76
2022/04/19 14:21:05;;;;;;;1.60;1.50;;;18.30;19.50;;;;;;10389945;28;20225;-75
2022/04/19 14:26:10;;;;;;;2.00;1.60;;;18.30;19.70;;;;;;10386422;28;20230;-74
2022/04/19 14:36:35;;;;;;;5.80;1.70;;;18.30;19.70;;;;;;10387210;28;20225;-74
2022/04/19 14:41:39;;;;;;;1.63;1.53;;;18.30;19.30;;;;;;10386913;28;20228;-74
2022/04/19 14:46:43;;;;;;;1.70;1.60;;;18.30;19.30;;;;;;10385069;28;20241;-73
2022/04/19 14:57:09;;;;;;;1.57;1.47;;;18.30;19.60;;;;;;10377035;28;20669;-73
2022/04/19 15:02:13;;;;;;;1.50;1.40;;;18.30;19.40;;;;;;10386104;28;20233;-74
2022/04/19 15:07:17;;;;;;;2.13;1.43;;;18.20;19.90;;;;;;10385169;28;20240;-74
2022/04/19 15:12:23;;;;;;;1.57;1.40;;;18.30;19.60;;;;;;10385652;28;20229;-74
2022/04/19 15:17:28;;;;;;;2.10;1.20;;;18.40;19.60;;;;;;10390433;28;20236;-73
2022/04/19 15:22:31;;;;;;;1.50;1.40;;;18.40;19.30;;;;;;10388626;28;20225;-73
2022/04/19 15:27:36;;;;;;;1.40;1.30;;;18.30;19.40;;;;;;10386219;28;20341;-73
2022/04/19 15:32:39;;;;;;;3.63;1.43;;;18.30;19.50;;;;;;10381972;28;20224;-73
2022/04/19 15:37:42;;;;;;;1.40;1.30;;;18.30;19.40;;;;;;10382629;28;20229;-74
2022/04/19 15:42:47;;;;;;;1.10;1.10;;;18.20;19.40;;;;;;10380149;28;20738;-73
2022/04/19 15:47:50;;;;;;;1.10;1.10;;;18.20;19.30;;;;;;10379891;28;20222;-75
2022/04/19 15:52:53;;;;;;;1.23;1.13;;;18.20;19.40;;;;;;10378025;28;20234;-75
2022/04/19 15:57:58;;;;;;;1.03;1.03;;;18.20;19.50;;;;;;10381684;28;20230;-75
2022/04/19 16:03:01;;;;;;;1.17;1.00;;;18.20;19.50;;;;;;10379883;28;20225;-75
2022/04/19 16:08:05;;;;;;;0.90;0.90;;;18.10;19.50;;;;;;10379864;28;20236;-75
2022/04/19 16:13:12;;;;;;;0.97;0.97;;;18.10;19.30;;;;;;10381173;28;20246;-75
2022/04/19 16:23:36;;;;;;;1.13;1.03;;;18.10;18.90;;;;;;10379502;28;20225;-75
2022/04/19 16:28:42;;;;;;;0.93;0.93;;;18.10;19.40;;;;;;10381510;28;20242;-75
2022/04/19 16:33:46;;;;;;;1.53;1.30;;;18.00;18.40;;;;;;10374976;28;20586;-75
2022/04/19 16:38:49;;;;;;;3.43;1.63;;;17.90;18.60;;;;;;10373251;28;20226;-74
2022/04/19 16:43:53;;;;;;;2.37;1.50;;;17.80;18.60;;;;;;10375901;28;20671;-71
2022/04/19 16:48:57;;;;;;;1.60;1.50;;;17.80;18.40;;;;;;10377595;28;20226;-71
2022/04/19 16:54:00;;;;;;;1.60;1.50;;;17.60;18.50;;;;;;10371536;28;20236;-71
2022/04/19 16:59:04;;;;;;;1.60;1.23;;;17.60;18.60;;;;;;10373733;28;20708;-71
2022/04/19 17:04:07;;;;;;;1.70;1.60;;;17.50;18.50;;;;;;10379678;28;20320;-72
2022/04/19 17:09:13;;;;;;;3.57;1.50;;;17.40;18.40;;;;;;10375039;28;20749;-71
2022/04/19 17:14:20;;;;;;;1.67;1.50;;;17.30;18.40;;;;;;10377461;28;20229;-71
2022/04/19 17:19:23;;;;;;;2.80;1.90;;;17.20;18.30;;;;;;10374297;28;20690;-78
2022/04/19 17:24:26;;;;;;;1.90;1.80;;;17.10;18.30;;;;;;10384593;28;20229;-79
2022/04/19 17:29:32;;;;;;;1.90;1.70;;;17.00;18.40;;;;;;10378870;28;20724;-80
2022/04/19 17:34:35;;;;;;;1.93;1.60;;;16.90;18.20;;;;;;10382182;28;20236;-78
2022/04/19 17:39:39;;;;;;;2.67;2.37;;;16.80;18.40;;;;;;10383195;28;20311;-79
2022/04/19 17:44:44;;;;;;;2.60;2.40;;;16.80;19.10;;;;;;10379596;28;20702;-78
2022/04/19 18:00:26;;;;;;;3.50;3.20;;;16.50;18.70;;;;;;10383338;28;20225;-77
2022/04/19 18:05:32;;;;;;;3.37;2.40;;;16.40;18.70;;;;;;10380381;28;20272;-77
2022/04/19 18:10:37;;;;;;;2.70;2.50;;;16.30;18.80;;;;;;10380870;28;20218;-77
2022/04/19 18:15:51;;;;;;;2.70;2.50;;;16.30;18.90;;;;;;10381740;28;20228;-77
2022/04/19 18:20:54;;;;;;;3.47;2.80;;;16.20;18.90;;;;;;10377234;28;20245;-77
2022/04/19 18:25:58;;;;;;;2.70;2.50;;;16.10;19.00;;;;;;10380563;28;20616;-78
2022/04/19 18:31:03;;;;;;;5.57;3.67;;;16.10;19.20;;;;;;10383169;28;20221;-74
2022/04/19 18:36:08;;;;;;;3.07;2.50;;;16.00;19.00;;;;;;10371966;23;20225;-72
2022/04/19 18:41:11;;;;;;;3.43;2.70;;;16.00;18.80;;;;;;10347567;28;20241;-72
2022/04/19 18:46:15;;;;;;;2.93;2.27;;;15.90;18.40;;;;;;10347609;28;20234;-72
2022/04/19 18:51:22;;;;;;;2.63;2.20;;;15.60;18.00;;;;;;10346926;28;20321;-73
2022/04/19 18:56:26;;;;;;;2.43;2.23;;;15.40;18.20;;;;;;10346797;28;20222;-72
2022/04/19 19:01:31;;;;;;;2.20;2.10;;;15.20;18.30;;;;;;10352705;28;20236;-74
2022/04/19 19:06:34;;;;;;;2.63;2.43;;;15.00;18.20;;;;;;10348209;28;20317;-73
2022/04/19 19:11:37;;;;;;;3.13;2.60;;;14.90;18.40;;;;;;10355837;28;20765;-72
2022/04/19 19:16:42;;;;;;;2.70;2.50;;;14.70;18.40;;;;;;10345139;28;20226;-75
2022/04/19 19:21:46;;;;;;;2.50;2.30;;;14.60;18.50;;;;;;10353910;28;20236;-75
2022/04/19 19:26:49;;;;;;;3.63;2.70;;;14.50;18.80;;;;;;10346481;28;20236;-75
2022/04/19 19:31:55;;;;;;;2.77;2.43;;;14.30;19.00;;;;;;10335683;28;20225;-75
2022/04/19 19:36:59;;;;;;;3.60;2.50;;;14.10;19.20;;;;;;10335513;28;20428;-75
2022/04/19 19:42:03;;;;;;;2.90;2.70;;;14.00;19.40;;;;;;10340435;28;20608;-75
2022/04/19 19:47:08;;;;;;;3.07;2.77;;;13.70;19.60;;;;;;10349843;28;20234;-72
2022/04/19 19:52:11;;;;;;;2.70;2.50;;;13.60;19.70;;;;;;10360306;28;20317;-71
2022/04/19 19:57:14;;;;;;;3.53;2.80;;;13.60;20.30;;;;;;10383124;28;20320;-72
2022/04/19 20:02:19;;;;;;;3.17;2.87;;;13.60;19.80;;;;;;10378144;28;20226;-73
2022/04/19 20:07:23;;;;;;;2.60;2.40;;;13.60;20.00;;;;;;10366163;28;20237;-73
2022/04/19 20:12:26;;;;;;;3.23;2.93;;;13.60;20.00;;;;;;10365514;28;20659;-73
2022/04/19 20:17:31;;;;;;;2.70;2.50;;;13.60;20.00;;;;;;10390522;28;20217;-72
2022/04/19 20:22:35;;;;;;;2.83;2.63;;;13.50;20.00;;;;;;10366763;28;20234;-73
2022/04/19 20:27:38;;;;;;;2.87;2.67;;;13.50;20.10;;;;;;10406196;28;20233;-75
2022/04/19 20:32:43;;;;;;;3.13;2.90;;;13.40;20.20;;;;;;10371132;28;20230;-73
2022/04/19 20:37:46;;;;;;;2.63;2.43;;;13.30;20.50;;;;;;10365478;28;20253;-72
2022/04/19 20:42:50;;;;;;;2.60;2.40;;;13.20;20.50;;;;;;10365323;28;20770;-72
2022/04/19 20:53:16;;;;;;;2.87;2.67;;;13.10;20.60;;;;;;10302707;28;20309;-73
2022/04/19 20:58:21;;;;;;;4.03;2.60;;;13.10;20.60;;;;;;10355782;28;20235;-73
2022/04/19 21:03:25;;;;;;;2.77;2.57;;;13.10;20.60;;;;;;10363080;28;20264;-73
2022/04/19 21:08:29;;;;;;;2.70;2.50;;;13.10;20.60;;;;;;10363928;28;20226;-72
2022/04/19 21:13:32;;;;;;;2.70;2.50;;;13.00;20.60;;;;;;10381416;28;20238;-75
2022/04/19 21:18:36;;;;;;;3.00;2.80;;;12.90;20.50;;;;;;10366142;28;20230;-72
2022/04/19 21:23:40;;;;;;;3.10;2.83;;;12.90;20.90;;;;;;10365536;28;20257;-72
2022/04/19 21:28:44;;;;;;;2.93;2.73;;;12.90;20.80;;;;;;10365388;28;20234;-72
2022/04/19 21:33:49;;;;;;;3.00;2.80;;;12.90;20.90;;;;;;10376773;28;20261;-72
2022/04/19 21:38:52;;;;;;;3.23;2.93;;;12.90;21.00;;;;;;10373196;28;20218;-72
2022/04/19 21:43:55;;;;;;;2.90;2.70;;;12.80;20.80;;;;;;10402167;28;20230;-72
2022/04/19 21:49:00;;;;;;;2.37;2.27;;;12.80;20.80;;;;;;10381419;28;20273;-72
2022/04/19 21:54:03;;;;;;;2.67;2.47;;;12.70;20.90;;;;;;10364803;28;20726;-72
2022/04/19 21:59:07;;;;;;;3.07;2.50;;;12.60;20.90;;;;;;10365190;28;20236;-72
2022/04/19 22:04:12;;;;;;;2.60;2.40;;;12.60;21.10;;;;;;10364988;28;20234;-72
2022/04/19 22:09:15;;;;;;;2.47;2.27;;;12.50;21.30;;;;;;10386048;28;20229;-72
2022/04/19 22:14:18;;;;;;;3.00;2.77;;;12.50;21.20;;;;;;10396569;28;20247;-72
2022/04/19 22:19:23;;;;;;;3.40;2.90;;;12.40;21.20;;;;;;10396203;28;20238;-75
2022/04/19 22:24:26;;;;;;;4.17;3.27;;;12.40;21.40;;;;;;10379350;28;20251;-72
2022/04/19 22:29:29;;;;;;;3.30;3.10;;;12.30;21.30;;;;;;10380248;28;20226;-73
2022/04/19 22:34:34;;;;;;;3.83;3.53;;;12.20;21.30;;;;;;10380433;28;20230;-73
2022/04/19 22:39:42;;;;;;;3.53;3.23;;;12.10;21.40;;;;;;10374257;28;20230;-73
2022/04/19 22:44:45;;;;;;;3.03;2.83;;;12.10;21.40;;;;;;10377081;28;20240;-73
2022/04/19 22:49:50;;;;;;;4.10;3.80;;;11.90;21.30;;;;;;10376373;28;20229;-73
2022/04/19 22:54:53;;;;;;;3.20;2.90;;;11.80;21.60;;;;;;10368767;28;20214;-73
2022/04/19 22:59:56;;;;;;;3.43;3.13;;;11.80;21.40;;;;;;10374988;28;20234;-73
2022/04/19 23:05:03;;;;;;;4.10;3.37;;;11.70;21.50;;;;;;10375365;28;20225;-73
2022/04/19 23:10:08;;;;;;;2.93;2.67;;;11.60;21.70;;;;;;10374318;28;20238;-73
2022/04/19 23:15:11;;;;;;;3.30;3.00;;;11.50;21.60;;;;;;10358479;28;20314;-73
2022/04/19 23:20:16;;;;;;;2.40;2.20;;;11.40;21.60;;;;;;10370831;28;20241;-73
2022/04/19 23:25:19;;;;;;;3.13;2.83;;;11.40;21.70;;;;;;10381474;28;20236;-73
2022/04/19 23:30:23;;;;;;;3.00;2.80;;;11.30;21.60;;;;;;10400534;28;20618;-72
2022/04/19 23:35:28;;;;;;;3.53;3.23;;;11.20;21.70;;;;;;10365220;28;20230;-72
2022/04/19 23:40:31;;;;;;;3.37;3.17;;;11.10;21.90;;;;;;10380787;28;20241;-72
2022/04/19 23:45:35;;;;;;;3.00;2.80;;;11.00;21.80;;;;;;10361687;28;20719;-73
2022/04/19 23:50:39;;;;;;;2.87;2.67;;;11.00;21.90;;;;;;10363683;28;20234;-73
2022/04/19 23:55:43;;;;;;;3.07;2.87;;;10.80;21.90;;;;;;10382727;28;20235;-72
